DLH25EL EDDN-EHRD
Flight info
| Callsign | DLH25EL |
|---|---|
| Flight time | N/A |
| Altitude | 35000 |
| Route | SULU1G SULUS L604 RELBI L602 RKN RKN3R |
| Aircraft | A319/M-SDE3FGHIRWY/L |
Departure
| Time | 2026-05-07 16:32 |
|---|---|
| Airport | Nuremberg Airport (EDDN) |
Arrival
| Time | N/A |
|---|---|
| Airport | Rotterdam The Hague Airport (EHRD) |
| Time | Latitude | Longitude | Altitude | Speed | Heading |
|---|---|---|---|---|---|
| 2026-05-07 16:05 | 49.49529 | 11.07661 | 1026 ft | 0 kts | 188° |
| 2026-05-07 16:20 | 49.49541 | 11.07663 | 1026 ft | 2 kts | 188° |
| 2026-05-07 16:20 | 49.49556 | 11.07667 | 1027 ft | 1 kts | 188° |
| 2026-05-07 16:20 | 49.49571 | 11.07667 | 1027 ft | 2 kts | 164° |
| 2026-05-07 16:21 | 49.49584 | 11.07658 | 1027 ft | 2 kts | 144° |
| 2026-05-07 16:21 | 49.49594 | 11.07643 | 1026 ft | 2 kts | 124° |
| 2026-05-07 16:21 | 49.49600 | 11.07628 | 1026 ft | 2 kts | 107° |
| 2026-05-07 16:21 | 49.49601 | 11.07620 | 1026 ft | 0 kts | 99° |
| 2026-05-07 16:22 | 49.49602 | 11.07611 | 1026 ft | 1 kts | 97° |
| 2026-05-07 16:22 | 49.49602 | 11.07610 | 1026 ft | 0 kts | 97° |
| 2026-05-07 16:26 | 49.49598 | 11.07649 | 1027 ft | 6 kts | 99° |
| 2026-05-07 16:26 | 49.49590 | 11.07743 | 1027 ft | 11 kts | 97° |
| 2026-05-07 16:27 | 49.49579 | 11.07875 | 1028 ft | 15 kts | 97° |
| 2026-05-07 16:27 | 49.49565 | 11.07986 | 1029 ft | 17 kts | 99° |
| 2026-05-07 16:27 | 49.49548 | 11.08158 | 1030 ft | 20 kts | 98° |
| 2026-05-07 16:27 | 49.49536 | 11.08291 | 1031 ft | 4 kts | 96° |
| 2026-05-07 16:28 | 49.49542 | 11.08336 | 1032 ft | 4 kts | 52° |
| 2026-05-07 16:28 | 49.49572 | 11.08353 | 1032 ft | 4 kts | 6° |
| 2026-05-07 16:28 | 49.49611 | 11.08376 | 1032 ft | 5 kts | 41° |
| 2026-05-07 16:28 | 49.49611 | 11.08425 | 1033 ft | 4 kts | 93° |
| 2026-05-07 16:29 | 49.49612 | 11.08477 | 1033 ft | 5 kts | 94° |
| 2026-05-07 16:29 | 49.49608 | 11.08532 | 1034 ft | 6 kts | 98° |
| 2026-05-07 16:29 | 49.49599 | 11.08620 | 1035 ft | 9 kts | 99° |
| 2026-05-07 16:29 | 49.49586 | 11.08737 | 1037 ft | 12 kts | 99° |
| 2026-05-07 16:30 | 49.49573 | 11.08866 | 1039 ft | 14 kts | 99° |
| 2026-05-07 16:30 | 49.49561 | 11.08988 | 1041 ft | 16 kts | 98° |
| 2026-05-07 16:30 | 49.49547 | 11.09137 | 1043 ft | 17 kts | 98° |
| 2026-05-07 16:30 | 49.49541 | 11.09336 | 1046 ft | 16 kts | 66° |
| 2026-05-07 16:31 | 49.49595 | 11.09492 | 1049 ft | 18 kts | 53° |
| 2026-05-07 16:31 | 49.49673 | 11.09563 | 1050 ft | 19 kts | 352° |
| 2026-05-07 16:31 | 49.49706 | 11.09452 | 1049 ft | 21 kts | 279° |
| 2026-05-07 16:31 | 49.49754 | 11.08982 | 1041 ft | 83 kts | 278° |
| 2026-05-07 16:32 | 49.49846 | 11.08038 | 1030 ft | 135 kts | 278° |
| 2026-05-07 16:32 | 49.49979 | 11.06678 | 1250 ft | 159 kts | 278° |
| 2026-05-07 16:32 | 49.50234 | 11.04037 | 2408 ft | 156 kts | 279° |
| 2026-05-07 16:33 | 49.50366 | 11.02657 | 2908 ft | 162 kts | 282° |